Decoded Metar for PAKH ( in _UNIDENTIFIED) (IATA:) | Meteo·Mobile Aviation Weather
aviador You're here:

PAKH Decoded Metar

in _UNIDENTIFIED
Report Time2018-09-18 23:19:00
UTC Time2018-09-18 23:53:17
Flight Rules vfr VFR
Wind310° at 11 kt
W.Decomp.*RWY 22: 3.4 kt HW 10.5 kt RCW
W.Rank310° ranks 1
Current wind is below 310° avg. (17.9)
Visibility9999 m
Phenomena:N/A
Clouds:Scattered 028 Hf
Overcast 080 Hf
Expected CloudBase > 2,000 ft AGL from Temp-Dew spread
Ceiling8,000 ft
Temp14°C (ISA -1)
Dew Point09°C (72% RH)
AAT9.8°C
QNH1023 hPa
Density Alt-243 ft
Elevation46 ft
Report Wrong Elevation
Raw Report
PAKH 182319Z AUTO 31011KT 10SM SCT028 OVC080 14/09 A3022 RMK AO2
$=

Extra information for PAKH:More info

Social comments